sensor_id;sensor_type;location;lat;lon;timestamp;temperature;humidity
66343;DHT22;53144;51.524;5.080;2023-03-13T00:01:14;9.49;94.20
66343;DHT22;53144;51.524;5.080;2023-03-13T00:03:40;9.47;94.50
66343;DHT22;53144;51.524;5.080;2023-03-13T00:06:05;9.47;94.94
66343;DHT22;53144;51.524;5.080;2023-03-13T00:08:31;9.48;95.11
66343;DHT22;53144;51.524;5.080;2023-03-13T00:10:56;9.48;95.40
66343;DHT22;53144;51.524;5.080;2023-03-13T00:13:21;9.45;95.57
66343;DHT22;53144;51.524;5.080;2023-03-13T00:15:47;9.49;95.73
66343;DHT22;53144;51.524;5.080;2023-03-13T00:18:12;9.47;96.01
66343;DHT22;53144;51.524;5.080;2023-03-13T00:20:38;9.47;96.20
66343;DHT22;53144;51.524;5.080;2023-03-13T00:23:03;9.45;96.52
66343;DHT22;53144;51.524;5.080;2023-03-13T00:25:29;9.41;96.69
66343;DHT22;53144;51.524;5.080;2023-03-13T00:27:54;9.44;96.82
66343;DHT22;53144;51.524;5.080;2023-03-13T00:30:20;9.49;96.89
66343;DHT22;53144;51.524;5.080;2023-03-13T00:32:46;9.48;97.13
66343;DHT22;53144;51.524;5.080;2023-03-13T00:35:12;9.48;97.11
66343;DHT22;53144;51.524;5.080;2023-03-13T00:37:38;9.48;97.32
66343;DHT22;53144;51.524;5.080;2023-03-13T00:40:04;9.52;97.48
66343;DHT22;53144;51.524;5.080;2023-03-13T00:42:30;9.51;97.54
66343;DHT22;53144;51.524;5.080;2023-03-13T00:44:56;9.57;97.68
66343;DHT22;53144;51.524;5.080;2023-03-13T00:47:21;9.57;97.76
66343;DHT22;53144;51.524;5.080;2023-03-13T00:49:46;9.61;97.87
66343;DHT22;53144;51.524;5.080;2023-03-13T00:52:12;9.63;97.97
66343;DHT22;53144;51.524;5.080;2023-03-13T00:54:37;9.68;98.03
66343;DHT22;53144;51.524;5.080;2023-03-13T00:57:03;9.69;98.12
66343;DHT22;53144;51.524;5.080;2023-03-13T00:59:28;9.75;98.04
66343;DHT22;53144;51.524;5.080;2023-03-13T01:01:53;9.79;98.08
66343;DHT22;53144;51.524;5.080;2023-03-13T01:04:19;9.83;98.17
66343;DHT22;53144;51.524;5.080;2023-03-13T01:06:44;9.82;98.19
66343;DHT22;53144;51.524;5.080;2023-03-13T01:09:15;9.86;98.17
66343;DHT22;53144;51.524;5.080;2023-03-13T01:11:42;9.88;98.34
66343;DHT22;53144;51.524;5.080;2023-03-13T01:14:12;9.92;98.28
66343;DHT22;53144;51.524;5.080;2023-03-13T01:16:38;9.95;98.31
66343;DHT22;53144;51.524;5.080;2023-03-13T01:19:06;9.98;98.42
66343;DHT22;53144;51.524;5.080;2023-03-13T01:21:32;9.99;98.37
66343;DHT22;53144;51.524;5.080;2023-03-13T01:23:58;10.05;98.44
66343;DHT22;53144;51.524;5.080;2023-03-13T01:26:24;10.09;98.36
66343;DHT22;53144;51.524;5.080;2023-03-13T01:28:50;10.07;98.46
66343;DHT22;53144;51.524;5.080;2023-03-13T01:31:24;10.16;98.44
66343;DHT22;53144;51.524;5.080;2023-03-13T01:33:53;10.23;98.31
66343;DHT22;53144;51.524;5.080;2023-03-13T01:36:18;10.23;98.21
66343;DHT22;53144;51.524;5.080;2023-03-13T01:38:50;10.34;98.09
66343;DHT22;53144;51.524;5.080;2023-03-13T01:41:17;10.34;97.98
66343;DHT22;53144;51.524;5.080;2023-03-13T01:43:44;10.38;98.01
66343;DHT22;53144;51.524;5.080;2023-03-13T01:46:18;10.40;98.05
66343;DHT22;53144;51.524;5.080;2023-03-13T01:51:38;10.54;97.68
66343;DHT22;53144;51.524;5.080;2023-03-13T01:54:24;10.60;97.55
66343;DHT22;53144;51.524;5.080;2023-03-13T01:59:21;10.63;97.53
66343;DHT22;53144;51.524;5.080;2023-03-13T02:01:48;10.72;97.37
66343;DHT22;53144;51.524;5.080;2023-03-13T02:04:17;10.77;97.25
66343;DHT22;53144;51.524;5.080;2023-03-13T02:06:45;10.74;97.36
66343;DHT22;53144;51.524;5.080;2023-03-13T02:09:16;10.79;97.33
66343;DHT22;53144;51.524;5.080;2023-03-13T02:11:47;10.84;97.33
66343;DHT22;53144;51.524;5.080;2023-03-13T02:14:16;10.84;97.29
66343;DHT22;53144;51.524;5.080;2023-03-13T02:16:42;10.92;97.16
66343;DHT22;53144;51.524;5.080;2023-03-13T02:19:34;10.89;97.26
66343;DHT22;53144;51.524;5.080;2023-03-13T02:22:20;10.91;97.28
66343;DHT22;53144;51.524;5.080;2023-03-13T02:24:57;10.95;97.31
66343;DHT22;53144;51.524;5.080;2023-03-13T02:27:25;10.96;97.32
66343;DHT22;53144;51.524;5.080;2023-03-13T02:29:50;10.98;97.30
66343;DHT22;53144;51.524;5.080;2023-03-13T02:32:17;11.05;97.12
66343;DHT22;53144;51.524;5.080;2023-03-13T02:34:42;11.11;97.06
66343;DHT22;53144;51.524;5.080;2023-03-13T02:37:08;11.06;97.15
66343;DHT22;53144;51.524;5.080;2023-03-13T02:39:42;11.11;97.00
66343;DHT22;53144;51.524;5.080;2023-03-13T02:42:11;11.12;97.06
66343;DHT22;53144;51.524;5.080;2023-03-13T02:44:40;11.16;97.03
66343;DHT22;53144;51.524;5.080;2023-03-13T02:47:06;11.18;96.88
66343;DHT22;53144;51.524;5.080;2023-03-13T02:49:34;11.32;96.53
66343;DHT22;53144;51.524;5.080;2023-03-13T02:52:03;11.32;96.65
66343;DHT22;53144;51.524;5.080;2023-03-13T02:54:34;11.33;96.68
66343;DHT22;53144;51.524;5.080;2023-03-13T02:57:03;11.37;96.76
66343;DHT22;53144;51.524;5.080;2023-03-13T02:59:29;11.33;96.89
66343;DHT22;53144;51.524;5.080;2023-03-13T03:01:54;11.35;97.20
66343;DHT22;53144;51.524;5.080;2023-03-13T03:04:22;11.32;97.02
66343;DHT22;53144;51.524;5.080;2023-03-13T03:06:48;11.36;97.28
66343;DHT22;53144;51.524;5.080;2023-03-13T03:09:14;11.36;97.11
66343;DHT22;53144;51.524;5.080;2023-03-13T03:11:40;11.43;97.09
66343;DHT22;53144;51.524;5.080;2023-03-13T03:14:06;11.46;97.01
66343;DHT22;53144;51.524;5.080;2023-03-13T03:16:32;11.49;96.98
66343;DHT22;53144;51.524;5.080;2023-03-13T03:18:57;11.53;96.92
66343;DHT22;53144;51.524;5.080;2023-03-13T03:21:23;11.52;96.93
66343;DHT22;53144;51.524;5.080;2023-03-13T03:23:48;11.54;96.93
66343;DHT22;53144;51.524;5.080;2023-03-13T03:26:14;11.56;97.06
66343;DHT22;53144;51.524;5.080;2023-03-13T03:28:39;11.60;97.27
66343;DHT22;53144;51.524;5.080;2023-03-13T03:31:07;11.59;97.46
66343;DHT22;53144;51.524;5.080;2023-03-13T03:33:32;11.63;97.32
66343;DHT22;53144;51.524;5.080;2023-03-13T03:36:01;11.69;97.25
66343;DHT22;53144;51.524;5.080;2023-03-13T03:38:27;11.69;97.38
66343;DHT22;53144;51.524;5.080;2023-03-13T03:40:53;11.69;97.48
66343;DHT22;53144;51.524;5.080;2023-03-13T03:43:18;11.64;97.52
66343;DHT22;53144;51.524;5.080;2023-03-13T03:45:43;11.59;97.71
66343;DHT22;53144;51.524;5.080;2023-03-13T03:48:09;11.69;97.54
66343;DHT22;53144;51.524;5.080;2023-03-13T03:50:34;11.77;97.11
66343;DHT22;53144;51.524;5.080;2023-03-13T03:52:59;11.83;96.89
66343;DHT22;53144;51.524;5.080;2023-03-13T03:55:25;11.88;96.80
66343;DHT22;53144;51.524;5.080;2023-03-13T03:57:50;11.85;96.96
66343;DHT22;53144;51.524;5.080;2023-03-13T04:00:16;11.97;96.35
66343;DHT22;53144;51.524;5.080;2023-03-13T04:02:43;11.99;96.19
66343;DHT22;53144;51.524;5.080;2023-03-13T04:05:08;11.97;96.17
66343;DHT22;53144;51.524;5.080;2023-03-13T04:07:33;11.97;96.07
66343;DHT22;53144;51.524;5.080;2023-03-13T04:09:59;11.99;95.79
66343;DHT22;53144;51.524;5.080;2023-03-13T04:12:24;12.04;95.57
66343;DHT22;53144;51.524;5.080;2023-03-13T04:14:49;12.01;95.43
66343;DHT22;53144;51.524;5.080;2023-03-13T04:17:15;12.05;95.38
66343;DHT22;53144;51.524;5.080;2023-03-13T04:19:40;12.06;94.90
66343;DHT22;53144;51.524;5.080;2023-03-13T04:22:06;12.11;94.79
66343;DHT22;53144;51.524;5.080;2023-03-13T04:24:31;12.11;94.50
66343;DHT22;53144;51.524;5.080;2023-03-13T04:26:57;12.17;94.26
66343;DHT22;53144;51.524;5.080;2023-03-13T04:29:23;12.22;94.06
66343;DHT22;53144;51.524;5.080;2023-03-13T04:31:48;12.25;93.70
66343;DHT22;53144;51.524;5.080;2023-03-13T04:34:13;12.28;93.56
66343;DHT22;53144;51.524;5.080;2023-03-13T04:36:39;12.35;93.24
66343;DHT22;53144;51.524;5.080;2023-03-13T04:39:04;12.38;93.13
66343;DHT22;53144;51.524;5.080;2023-03-13T04:41:29;12.38;93.14
66343;DHT22;53144;51.524;5.080;2023-03-13T04:43:55;12.39;92.99
66343;DHT22;53144;51.524;5.080;2023-03-13T04:46:20;12.36;93.14
66343;DHT22;53144;51.524;5.080;2023-03-13T04:48:45;12.43;92.84
66343;DHT22;53144;51.524;5.080;2023-03-13T04:51:11;12.39;92.94
66343;DHT22;53144;51.524;5.080;2023-03-13T04:53:36;12.39;92.76
66343;DHT22;53144;51.524;5.080;2023-03-13T04:56:02;12.48;92.56
66343;DHT22;53144;51.524;5.080;2023-03-13T04:58:27;12.52;92.12
66343;DHT22;53144;51.524;5.080;2023-03-13T05:00:52;12.56;91.90
66343;DHT22;53144;51.524;5.080;2023-03-13T05:03:19;12.57;91.80
66343;DHT22;53144;51.524;5.080;2023-03-13T05:05:44;12.56;91.90
66343;DHT22;53144;51.524;5.080;2023-03-13T05:08:10;12.64;91.36
66343;DHT22;53144;51.524;5.080;2023-03-13T05:10:35;12.62;91.49
66343;DHT22;53144;51.524;5.080;2023-03-13T05:13:00;12.60;91.40
66343;DHT22;53144;51.524;5.080;2023-03-13T05:15:26;12.69;91.11
66343;DHT22;53144;51.524;5.080;2023-03-13T05:17:51;12.57;91.56
66343;DHT22;53144;51.524;5.080;2023-03-13T05:20:17;12.63;91.11
66343;DHT22;53144;51.524;5.080;2023-03-13T05:22:42;12.70;90.84
66343;DHT22;53144;51.524;5.080;2023-03-13T05:25:07;12.67;91.09
66343;DHT22;53144;51.524;5.080;2023-03-13T05:27:33;12.70;90.79
66343;DHT22;53144;51.524;5.080;2023-03-13T05:29:59;12.67;90.77
66343;DHT22;53144;51.524;5.080;2023-03-13T05:32:24;12.76;90.07
66343;DHT22;53144;51.524;5.080;2023-03-13T05:34:49;12.73;89.92
66343;DHT22;53144;51.524;5.080;2023-03-13T05:37:15;12.70;90.34
66343;DHT22;53144;51.524;5.080;2023-03-13T05:39:40;12.70;90.33
66343;DHT22;53144;51.524;5.080;2023-03-13T05:42:05;12.63;90.39
66343;DHT22;53144;51.524;5.080;2023-03-13T05:44:31;12.73;89.77
66343;DHT22;53144;51.524;5.080;2023-03-13T05:46:56;12.76;89.46
66343;DHT22;53144;51.524;5.080;2023-03-13T05:49:21;12.86;88.84
66343;DHT22;53144;51.524;5.080;2023-03-13T05:51:47;12.80;89.37
66343;DHT22;53144;51.524;5.080;2023-03-13T05:54:12;12.75;89.59
66343;DHT22;53144;51.524;5.080;2023-03-13T05:56:38;12.76;89.34
66343;DHT22;53144;51.524;5.080;2023-03-13T05:59:03;12.77;89.04
66343;DHT22;53144;51.524;5.080;2023-03-13T06:01:28;12.87;88.34
66343;DHT22;53144;51.524;5.080;2023-03-13T06:03:54;12.87;88.48
66343;DHT22;53144;51.524;5.080;2023-03-13T06:06:19;12.84;88.17
66343;DHT22;53144;51.524;5.080;2023-03-13T06:08:44;12.83;88.35
66343;DHT22;53144;51.524;5.080;2023-03-13T06:11:10;12.83;88.26
66343;DHT22;53144;51.524;5.080;2023-03-13T06:13:35;12.94;87.60
66343;DHT22;53144;51.524;5.080;2023-03-13T06:16:01;13.06;87.17
66343;DHT22;53144;51.524;5.080;2023-03-13T06:18:27;13.03;87.39
66343;DHT22;53144;51.524;5.080;2023-03-13T06:20:56;12.94;87.53
66343;DHT22;53144;51.524;5.080;2023-03-13T06:23:22;12.96;87.44
66343;DHT22;53144;51.524;5.080;2023-03-13T06:25:50;12.83;88.10
66343;DHT22;53144;51.524;5.080;2023-03-13T06:28:16;12.83;87.94
66343;DHT22;53144;51.524;5.080;2023-03-13T06:30:42;12.91;87.93
66343;DHT22;53144;51.524;5.080;2023-03-13T06:33:07;13.03;87.07
66343;DHT22;53144;51.524;5.080;2023-03-13T06:35:32;13.07;86.90
66343;DHT22;53144;51.524;5.080;2023-03-13T06:37:58;13.08;86.91
66343;DHT22;53144;51.524;5.080;2023-03-13T06:40:23;13.03;87.28
66343;DHT22;53144;51.524;5.080;2023-03-13T06:42:49;13.10;86.74
66343;DHT22;53144;51.524;5.080;2023-03-13T06:45:14;13.06;87.08
66343;DHT22;53144;51.524;5.080;2023-03-13T06:47:39;13.10;86.75
66343;DHT22;53144;51.524;5.080;2023-03-13T06:50:05;13.08;87.04
66343;DHT22;53144;51.524;5.080;2023-03-13T06:52:30;13.10;86.55
66343;DHT22;53144;51.524;5.080;2023-03-13T06:54:56;13.14;86.60
66343;DHT22;53144;51.524;5.080;2023-03-13T06:57:21;13.14;86.61
66343;DHT22;53144;51.524;5.080;2023-03-13T06:59:46;13.20;86.30
66343;DHT22;53144;51.524;5.080;2023-03-13T07:02:12;13.18;86.15
66343;DHT22;53144;51.524;5.080;2023-03-13T07:04:37;13.15;86.65
66343;DHT22;53144;51.524;5.080;2023-03-13T07:07:03;13.20;86.52
66343;DHT22;53144;51.524;5.080;2023-03-13T07:09:28;13.31;86.14
66343;DHT22;53144;51.524;5.080;2023-03-13T07:11:53;13.21;86.60
66343;DHT22;53144;51.524;5.080;2023-03-13T07:14:19;13.18;86.83
66343;DHT22;53144;51.524;5.080;2023-03-13T07:16:45;13.17;86.92
66343;DHT22;53144;51.524;5.080;2023-03-13T07:19:10;13.11;87.32
66343;DHT22;53144;51.524;5.080;2023-03-13T07:21:36;13.21;86.78
66343;DHT22;53144;51.524;5.080;2023-03-13T07:24:02;13.22;86.66
66343;DHT22;53144;51.524;5.080;2023-03-13T07:26:28;13.27;86.44
66343;DHT22;53144;51.524;5.080;2023-03-13T07:28:54;13.31;86.22
66343;DHT22;53144;51.524;5.080;2023-03-13T07:31:20;13.24;86.97
66343;DHT22;53144;51.524;5.080;2023-03-13T07:33:46;13.24;86.74
66343;DHT22;53144;51.524;5.080;2023-03-13T07:36:12;13.22;86.91
66343;DHT22;53144;51.524;5.080;2023-03-13T07:38:38;13.21;87.10
66343;DHT22;53144;51.524;5.080;2023-03-13T07:41:04;13.12;87.65
66343;DHT22;53144;51.524;5.080;2023-03-13T07:43:30;13.08;87.76
66343;DHT22;53144;51.524;5.080;2023-03-13T07:45:58;13.06;88.04
66343;DHT22;53144;51.524;5.080;2023-03-13T07:48:28;13.04;88.01
66343;DHT22;53144;51.524;5.080;2023-03-13T07:50:54;13.01;88.07
66343;DHT22;53144;51.524;5.080;2023-03-13T07:53:20;13.06;88.04
66343;DHT22;53144;51.524;5.080;2023-03-13T07:58:20;13.17;87.33
66343;DHT22;53144;51.524;5.080;2023-03-13T08:00:46;13.22;87.16
66343;DHT22;53144;51.524;5.080;2023-03-13T08:03:11;13.31;86.68
66343;DHT22;53144;51.524;5.080;2023-03-13T08:05:37;13.32;86.39
66343;DHT22;53144;51.524;5.080;2023-03-13T08:08:02;13.34;86.22
66343;DHT22;53144;51.524;5.080;2023-03-13T08:10:27;13.37;86.30
66343;DHT22;53144;51.524;5.080;2023-03-13T08:12:54;13.27;87.19
66343;DHT22;53144;51.524;5.080;2023-03-13T08:15:20;13.28;87.19
66343;DHT22;53144;51.524;5.080;2023-03-13T08:17:49;13.37;86.79
66343;DHT22;53144;51.524;5.080;2023-03-13T08:20:15;13.37;86.59
66343;DHT22;53144;51.524;5.080;2023-03-13T08:22:41;13.38;86.83
66343;DHT22;53144;51.524;5.080;2023-03-13T08:25:06;13.24;88.05
66343;DHT22;53144;51.524;5.080;2023-03-13T08:27:32;13.11;88.80
66343;DHT22;53144;51.524;5.080;2023-03-13T08:29:57;13.04;88.95
66343;DHT22;53144;51.524;5.080;2023-03-13T08:32:22;12.97;89.98
66343;DHT22;53144;51.524;5.080;2023-03-13T08:34:48;12.80;91.39
66343;DHT22;53144;51.524;5.080;2023-03-13T08:37:16;12.67;91.81
66343;DHT22;53144;51.524;5.080;2023-03-13T08:39:41;12.64;91.99
66343;DHT22;53144;51.524;5.080;2023-03-13T08:42:11;12.63;92.17
66343;DHT22;53144;51.524;5.080;2023-03-13T08:44:38;12.67;91.85
66343;DHT22;53144;51.524;5.080;2023-03-13T08:47:07;12.82;91.03
66343;DHT22;53144;51.524;5.080;2023-03-13T08:49:33;12.96;89.81
66343;DHT22;53144;51.524;5.080;2023-03-13T08:51:58;13.08;89.70
66343;DHT22;53144;51.524;5.080;2023-03-13T08:54:23;13.18;88.43
66343;DHT22;53144;51.524;5.080;2023-03-13T08:56:49;13.27;88.11
66343;DHT22;53144;51.524;5.080;2023-03-13T08:59:14;13.40;87.13
66343;DHT22;53144;51.524;5.080;2023-03-13T09:01:40;13.61;85.86
66343;DHT22;53144;51.524;5.080;2023-03-13T09:04:06;13.76;85.59
66343;DHT22;53144;51.524;5.080;2023-03-13T09:06:36;13.90;84.39
66343;DHT22;53144;51.524;5.080;2023-03-13T09:09:03;14.03;84.63
66343;DHT22;53144;51.524;5.080;2023-03-13T09:11:30;14.00;84.66
66343;DHT22;53144;51.524;5.080;2023-03-13T09:13:56;14.08;84.35
66343;DHT22;53144;51.524;5.080;2023-03-13T09:16:27;14.17;84.08
66343;DHT22;53144;51.524;5.080;2023-03-13T09:18:53;14.34;83.27
66343;DHT22;53144;51.524;5.080;2023-03-13T09:21:22;14.45;83.90
66343;DHT22;53144;51.524;5.080;2023-03-13T09:23:48;14.52;84.26
66343;DHT22;53144;51.524;5.080;2023-03-13T09:26:14;14.52;84.46
66343;DHT22;53144;51.524;5.080;2023-03-13T09:28:39;14.50;84.17
66343;DHT22;53144;51.524;5.080;2023-03-13T09:31:15;14.72;83.85
66343;DHT22;53144;51.524;5.080;2023-03-13T09:33:42;14.92;82.53
66343;DHT22;53144;51.524;5.080;2023-03-13T09:36:09;14.88;82.46
66343;DHT22;53144;51.524;5.080;2023-03-13T09:38:35;15.03;82.31
66343;DHT22;53144;51.524;5.080;2023-03-13T09:41:19;15.05;81.29
66343;DHT22;53144;51.524;5.080;2023-03-13T09:43:50;15.06;80.77
66343;DHT22;53144;51.524;5.080;2023-03-13T09:46:25;15.03;80.81
66343;DHT22;53144;51.524;5.080;2023-03-13T09:48:56;14.99;80.39
66343;DHT22;53144;51.524;5.080;2023-03-13T09:51:33;15.00;80.92
66343;DHT22;53144;51.524;5.080;2023-03-13T09:54:12;14.92;80.88
66343;DHT22;53144;51.524;5.080;2023-03-13T09:59:28;15.00;80.85
66343;DHT22;53144;51.524;5.080;2023-03-13T10:01:57;15.40;79.58
66343;DHT22;53144;51.524;5.080;2023-03-13T10:04:52;15.46;78.40
66343;DHT22;53144;51.524;5.080;2023-03-13T10:07:20;15.47;78.55
66343;DHT22;53144;51.524;5.080;2023-03-13T10:09:45;15.47;77.55
66343;DHT22;53144;51.524;5.080;2023-03-13T10:12:19;15.47;76.88
66343;DHT22;53144;51.524;5.080;2023-03-13T10:17:42;15.46;76.94
66343;DHT22;53144;51.524;5.080;2023-03-13T10:20:24;15.47;77.52
66343;DHT22;53144;51.524;5.080;2023-03-13T10:23:02;15.49;76.71
66343;DHT22;53144;51.524;5.080;2023-03-13T10:25:35;15.54;76.71
66343;DHT22;53144;51.524;5.080;2023-03-13T10:28:02;16.62;73.37
66343;DHT22;53144;51.524;5.080;2023-03-13T10:30:30;16.76;73.03
66343;DHT22;53144;51.524;5.080;2023-03-13T10:32:59;16.69;73.99
66343;DHT22;53144;51.524;5.080;2023-03-13T10:35:31;16.41;74.52
66343;DHT22;53144;51.524;5.080;2023-03-13T10:38:02;16.22;73.46
66343;DHT22;53144;51.524;5.080;2023-03-13T10:40:28;16.15;74.29
66343;DHT22;53144;51.524;5.080;2023-03-13T10:43:20;15.94;75.01
66343;DHT22;53144;51.524;5.080;2023-03-13T10:45:46;15.84;75.55
66343;DHT22;53144;51.524;5.080;2023-03-13T10:48:20;15.73;76.28
66343;DHT22;53144;51.524;5.080;2023-03-13T10:50:48;15.61;77.14
66343;DHT22;53144;51.524;5.080;2023-03-13T10:55:51;15.61;78.44
66343;DHT22;53144;51.524;5.080;2023-03-13T10:58:21;15.68;78.47
66343;DHT22;53144;51.524;5.080;2023-03-13T11:00:47;15.71;77.87
66343;DHT22;53144;51.524;5.080;2023-03-13T11:03:25;15.85;78.48
66343;DHT22;53144;51.524;5.080;2023-03-13T11:06:00;15.70;77.36
66343;DHT22;53144;51.524;5.080;2023-03-13T11:08:34;15.61;77.79
66343;DHT22;53144;51.524;5.080;2023-03-13T11:11:04;15.67;77.60
66343;DHT22;53144;51.524;5.080;2023-03-13T11:13:41;15.75;77.42
66343;DHT22;53144;51.524;5.080;2023-03-13T11:16:26;15.83;76.45
66343;DHT22;53144;51.524;5.080;2023-03-13T11:25:09;15.60;73.40
66343;DHT22;53144;51.524;5.080;2023-03-13T11:27:54;15.58;71.21
66343;DHT22;53144;51.524;5.080;2023-03-13T11:36:09;15.73;71.26
66343;DHT22;53144;51.524;5.080;2023-03-13T11:38:39;15.90;71.12
66343;DHT22;53144;51.524;5.080;2023-03-13T11:43:37;16.56;69.10
66343;DHT22;53144;51.524;5.080;2023-03-13T11:54:33;16.53;70.18
66343;DHT22;53144;51.524;5.080;2023-03-13T11:57:15;16.79;70.85
66343;DHT22;53144;51.524;5.080;2023-03-13T12:04:58;16.91;70.65
66343;DHT22;53144;51.524;5.080;2023-03-13T12:07:41;16.66;71.03
66343;DHT22;53144;51.524;5.080;2023-03-13T12:10:14;16.69;69.66
66343;DHT22;53144;51.524;5.080;2023-03-13T12:15:23;16.90;67.71
66343;DHT22;53144;51.524;5.080;2023-03-13T12:18:14;16.79;67.84
66343;DHT22;53144;51.524;5.080;2023-03-13T12:21:04;16.63;69.35
66343;DHT22;53144;51.524;5.080;2023-03-13T12:24:06;16.77;68.77
66343;DHT22;53144;51.524;5.080;2023-03-13T12:29:37;17.31;67.31
66343;DHT22;53144;51.524;5.080;2023-03-13T12:34:59;18.09;64.37
66343;DHT22;53144;51.524;5.080;2023-03-13T12:37:29;18.13;60.64
66343;DHT22;53144;51.524;5.080;2023-03-13T12:40:00;18.41;58.99
66343;DHT22;53144;51.524;5.080;2023-03-13T12:42:54;18.96;57.65
66343;DHT22;53144;51.524;5.080;2023-03-13T12:45:22;18.94;55.29
66343;DHT22;53144;51.524;5.080;2023-03-13T12:48:08;19.12;55.52
66343;DHT22;53144;51.524;5.080;2023-03-13T12:50:47;18.17;56.60
66343;DHT22;53144;51.524;5.080;2023-03-13T12:55:57;18.61;55.49
66343;DHT22;53144;51.524;5.080;2023-03-13T12:58:56;18.30;55.86
66343;DHT22;53144;51.524;5.080;2023-03-13T13:04:03;19.71;53.57
66343;DHT22;53144;51.524;5.080;2023-03-13T13:06:50;19.94;49.43
66343;DHT22;53144;51.524;5.080;2023-03-13T13:09:33;19.47;51.14
66343;DHT22;53144;51.524;5.080;2023-03-13T13:12:21;19.74;51.27
66343;DHT22;53144;51.524;5.080;2023-03-13T13:19:50;19.41;52.08
66343;DHT22;53144;51.524;5.080;2023-03-13T13:32:52;19.16;54.38
66343;DHT22;53144;51.524;5.080;2023-03-13T13:35:29;19.16;55.97
66343;DHT22;53144;51.524;5.080;2023-03-13T13:41:02;19.85;53.84
66343;DHT22;53144;51.524;5.080;2023-03-13T13:43:31;20.24;51.66
66343;DHT22;53144;51.524;5.080;2023-03-13T13:46:03;20.60;50.85
66343;DHT22;53144;51.524;5.080;2023-03-13T13:48:38;20.26;51.13
66343;DHT22;53144;51.524;5.080;2023-03-13T13:51:24;19.67;51.42
66343;DHT22;53144;51.524;5.080;2023-03-13T13:54:04;19.34;51.24
66343;DHT22;53144;51.524;5.080;2023-03-13T14:04:45;18.55;51.20
66343;DHT22;53144;51.524;5.080;2023-03-13T14:07:17;18.54;52.29
66343;DHT22;53144;51.524;5.080;2023-03-13T14:12:30;18.31;53.22
66343;DHT22;53144;51.524;5.080;2023-03-13T14:15:25;18.30;53.57
66343;DHT22;53144;51.524;5.080;2023-03-13T14:17:57;17.99;55.13
66343;DHT22;53144;51.524;5.080;2023-03-13T14:20:29;17.92;56.81
66343;DHT22;53144;51.524;5.080;2023-03-13T14:23:07;17.87;56.88
66343;DHT22;53144;51.524;5.080;2023-03-13T14:25:42;18.06;55.84
66343;DHT22;53144;51.524;5.080;2023-03-13T14:28:27;17.92;55.52
66343;DHT22;53144;51.524;5.080;2023-03-13T14:30:57;17.69;56.69
66343;DHT22;53144;51.524;5.080;2023-03-13T14:33:23;17.89;57.16
66343;DHT22;53144;51.524;5.080;2023-03-13T14:35:51;17.97;55.23
66343;DHT22;53144;51.524;5.080;2023-03-13T14:38:25;18.33;54.81
66343;DHT22;53144;51.524;5.080;2023-03-13T14:40:52;17.85;55.65
66343;DHT22;53144;51.524;5.080;2023-03-13T14:45:48;17.75;56.61
66343;DHT22;53144;51.524;5.080;2023-03-13T14:48:32;17.78;57.52
66343;DHT22;53144;51.524;5.080;2023-03-13T14:51:23;17.73;58.02
66343;DHT22;53144;51.524;5.080;2023-03-13T14:53:54;17.76;58.52
66343;DHT22;53144;51.524;5.080;2023-03-13T14:56:38;17.69;60.01
66343;DHT22;53144;51.524;5.080;2023-03-13T14:59:36;17.56;61.08
66343;DHT22;53144;51.524;5.080;2023-03-13T15:02:30;17.28;63.11
66343;DHT22;53144;51.524;5.080;2023-03-13T15:04:59;17.24;63.83
66343;DHT22;53144;51.524;5.080;2023-03-13T15:07:34;17.35;64.59
66343;DHT22;53144;51.524;5.080;2023-03-13T15:10:01;17.27;64.38
66343;DHT22;53144;51.524;5.080;2023-03-13T15:12:27;17.17;64.13
66343;DHT22;53144;51.524;5.080;2023-03-13T15:14:54;17.31;63.71
66343;DHT22;53144;51.524;5.080;2023-03-13T15:17:21;17.22;63.71
66343;DHT22;53144;51.524;5.080;2023-03-13T15:19:55;17.24;63.76
66343;DHT22;53144;51.524;5.080;2023-03-13T15:22:27;17.25;61.95
66343;DHT22;53144;51.524;5.080;2023-03-13T15:24:53;17.15;60.25
66343;DHT22;53144;51.524;5.080;2023-03-13T15:27:21;17.21;60.56
66343;DHT22;53144;51.524;5.080;2023-03-13T15:29:47;17.35;60.06
66343;DHT22;53144;51.524;5.080;2023-03-13T15:32:26;17.31;59.87
66343;DHT22;53144;51.524;5.080;2023-03-13T15:34:52;17.30;60.80
66343;DHT22;53144;51.524;5.080;2023-03-13T15:37:18;17.28;60.26
66343;DHT22;53144;51.524;5.080;2023-03-13T15:39:44;17.35;60.21
66343;DHT22;53144;51.524;5.080;2023-03-13T15:42:09;17.38;59.35
66343;DHT22;53144;51.524;5.080;2023-03-13T15:44:34;17.32;60.23
66343;DHT22;53144;51.524;5.080;2023-03-13T15:47:00;17.32;61.23
66343;DHT22;53144;51.524;5.080;2023-03-13T15:49:25;17.35;61.70
66343;DHT22;53144;51.524;5.080;2023-03-13T15:51:51;17.21;60.80
66343;DHT22;53144;51.524;5.080;2023-03-13T15:54:17;17.20;58.97
66343;DHT22;53144;51.524;5.080;2023-03-13T15:56:43;17.10;59.89
66343;DHT22;53144;51.524;5.080;2023-03-13T15:59:13;17.03;60.56
66343;DHT22;53144;51.524;5.080;2023-03-13T16:01:39;16.84;61.15
66343;DHT22;53144;51.524;5.080;2023-03-13T16:04:04;16.67;61.72
66343;DHT22;53144;51.524;5.080;2023-03-13T16:06:30;16.69;61.91
66343;DHT22;53144;51.524;5.080;2023-03-13T16:08:56;16.53;62.14
66343;DHT22;53144;51.524;5.080;2023-03-13T16:11:24;16.45;62.41
66343;DHT22;53144;51.524;5.080;2023-03-13T16:13:49;16.38;62.30
66343;DHT22;53144;51.524;5.080;2023-03-13T16:16:21;16.42;62.00
66343;DHT22;53144;51.524;5.080;2023-03-13T16:18:50;16.48;62.65
66343;DHT22;53144;51.524;5.080;2023-03-13T16:21:19;16.55;61.38
66343;DHT22;53144;51.524;5.080;2023-03-13T16:23:45;16.46;61.74
66343;DHT22;53144;51.524;5.080;2023-03-13T16:26:14;16.32;62.19
66343;DHT22;53144;51.524;5.080;2023-03-13T16:28:39;16.32;61.84
66343;DHT22;53144;51.524;5.080;2023-03-13T16:31:05;16.19;63.11
66343;DHT22;53144;51.524;5.080;2023-03-13T16:33:30;16.05;62.32
66343;DHT22;53144;51.524;5.080;2023-03-13T16:35:56;15.97;63.04
66343;DHT22;53144;51.524;5.080;2023-03-13T16:38:21;15.84;63.69
66343;DHT22;53144;51.524;5.080;2023-03-13T16:40:46;15.80;63.31
66343;DHT22;53144;51.524;5.080;2023-03-13T16:43:12;15.74;63.05
66343;DHT22;53144;51.524;5.080;2023-03-13T16:45:37;15.71;64.03
66343;DHT22;53144;51.524;5.080;2023-03-13T16:48:02;15.63;64.27
66343;DHT22;53144;51.524;5.080;2023-03-13T16:50:33;15.63;63.86
66343;DHT22;53144;51.524;5.080;2023-03-13T16:52:59;15.63;63.56
66343;DHT22;53144;51.524;5.080;2023-03-13T16:55:25;15.66;62.90
66343;DHT22;53144;51.524;5.080;2023-03-13T16:57:56;15.66;62.62
66343;DHT22;53144;51.524;5.080;2023-03-13T17:00:23;15.67;61.82
66343;DHT22;53144;51.524;5.080;2023-03-13T17:02:49;15.64;62.04
66343;DHT22;53144;51.524;5.080;2023-03-13T17:05:14;15.63;61.84
66343;DHT22;53144;51.524;5.080;2023-03-13T17:07:45;15.50;62.78
66343;DHT22;53144;51.524;5.080;2023-03-13T17:12:43;15.43;63.14
66343;DHT22;53144;51.524;5.080;2023-03-13T17:15:09;15.37;63.38